Duvernay, Canada
Current Conditions -  °F | °C
As of 9:00 AM on Thursday 30 Oct 2014 (Local Time) from CYUL Reporting Station
Few Clouds Few Clouds  
Wind Chill:   Ceiling: Unl
Heat Index:   Visibility: 15mi
Dew Point:   Wind: 8mph
Humidity: 70%   Direction: 300°WNW
Pressure: 29.97"   Gusts: NA
Location:  45.57°N, 73.85°W
Report Text: CYUL 301300Z 30007KT 15SM FEW020 FEW030 05/00 A2997 RMK CU1SC1 CU TR SLP149
Loading
Personal Weather Stations






























Interactive Weather Map
Tropical Storm Tracking
New forecast layout! Learn more

10-Day Weather Forecast

Advertisements
Track Severe Weather on mobile